首页
METAR-TAF:

METAR-TAF

机场 :

Red Wing Regional Airport

Red Wing, 明尼蘇達州, 美国

纬度: 44-35-25N, 经度: 092-29-10W, 海拔: 239米

当前天气观测

该预报发布于25分钟前的20:19 UTC
风速6节,风向南转西南
温度 -7°C
湿度 48%
气压 1028 hPa
能見度: 16.1公里
天空无云

METAR: KRGK 122019Z AUTO 20006KT 10SM CLR M07/M16 A3036 RMK AO2

时间: 14:44 (20:44 UTC)


TAF: 丢失

超过4000个机场的气象观测和天气预报(METAR&TAF报告)。

可查询的气象台以黄色和红色小点在地图上表示。

将鼠标移到小点上方,可查看气象台名称。

然后点击查看天气观测和预报。

如需切换地图:点击带黑十字的绿色按钮放大地图;点击带横线的绿色按钮缩小地图;或者点击绿色箭头查看邻近地区的地图。


METAR-TAF: